sensor_id;sensor_type;location;lat;lon;timestamp;P1;durP1;ratioP1;P2;durP2;ratioP2
60851;SDS011;48553;50.766;2.900;2023-10-09T00:01:09;8.57;;;4.50;;
60851;SDS011;48553;50.766;2.900;2023-10-09T00:04:13;6.82;;;3.90;;
60851;SDS011;48553;50.766;2.900;2023-10-09T00:07:16;9.23;;;4.18;;
60851;SDS011;48553;50.766;2.900;2023-10-09T00:10:16;7.60;;;3.90;;
60851;SDS011;48553;50.766;2.900;2023-10-09T00:13:17;9.00;;;4.40;;
60851;SDS011;48553;50.766;2.900;2023-10-09T00:16:19;8.27;;;4.13;;
60851;SDS011;48553;50.766;2.900;2023-10-09T00:19:44;8.40;;;4.32;;
60851;SDS011;48553;50.766;2.900;2023-10-09T00:22:49;11.00;;;3.97;;
60851;SDS011;48553;50.766;2.900;2023-10-09T00:25:51;9.45;;;4.20;;
60851;SDS011;48553;50.766;2.900;2023-10-09T00:29:27;9.65;;;4.32;;
60851;SDS011;48553;50.766;2.900;2023-10-09T00:32:34;9.57;;;4.32;;
60851;SDS011;48553;50.766;2.900;2023-10-09T00:35:37;9.52;;;4.60;;
60851;SDS011;48553;50.766;2.900;2023-10-09T00:38:44;8.90;;;4.15;;
60851;SDS011;48553;50.766;2.900;2023-10-09T00:41:49;8.73;;;4.15;;
60851;SDS011;48553;50.766;2.900;2023-10-09T00:44:49;8.73;;;4.40;;
60851;SDS011;48553;50.766;2.900;2023-10-09T00:47:50;7.85;;;4.20;;
60851;SDS011;48553;50.766;2.900;2023-10-09T00:50:51;8.63;;;4.28;;
60851;SDS011;48553;50.766;2.900;2023-10-09T00:53:56;9.30;;;4.43;;
60851;SDS011;48553;50.766;2.900;2023-10-09T00:56:58;9.25;;;4.57;;
60851;SDS011;48553;50.766;2.900;2023-10-09T01:00:06;10.23;;;4.47;;
60851;SDS011;48553;50.766;2.900;2023-10-09T01:03:24;11.57;;;5.00;;
60851;SDS011;48553;50.766;2.900;2023-10-09T01:06:25;10.93;;;5.15;;
60851;SDS011;48553;50.766;2.900;2023-10-09T01:09:33;10.40;;;5.13;;
60851;SDS011;48553;50.766;2.900;2023-10-09T01:12:38;12.02;;;5.70;;
60851;SDS011;48553;50.766;2.900;2023-10-09T01:15:44;11.90;;;5.55;;
60851;SDS011;48553;50.766;2.900;2023-10-09T01:18:46;10.45;;;5.53;;
60851;SDS011;48553;50.766;2.900;2023-10-09T01:21:50;11.70;;;5.57;;
60851;SDS011;48553;50.766;2.900;2023-10-09T01:24:51;11.68;;;5.63;;
60851;SDS011;48553;50.766;2.900;2023-10-09T01:27:55;10.15;;;5.55;;
60851;SDS011;48553;50.766;2.900;2023-10-09T01:30:57;10.88;;;5.40;;
60851;SDS011;48553;50.766;2.900;2023-10-09T01:33:57;10.52;;;5.60;;
60851;SDS011;48553;50.766;2.900;2023-10-09T01:36:59;10.50;;;5.38;;
60851;SDS011;48553;50.766;2.900;2023-10-09T01:40:05;13.20;;;5.90;;
60851;SDS011;48553;50.766;2.900;2023-10-09T01:43:25;12.30;;;5.93;;
60851;SDS011;48553;50.766;2.900;2023-10-09T01:46:27;10.75;;;5.70;;
60851;SDS011;48553;50.766;2.900;2023-10-09T01:49:27;10.85;;;5.78;;
60851;SDS011;48553;50.766;2.900;2023-10-09T01:52:31;11.52;;;5.38;;
60851;SDS011;48553;50.766;2.900;2023-10-09T01:55:31;10.50;;;5.80;;
60851;SDS011;48553;50.766;2.900;2023-10-09T01:58:35;10.85;;;6.30;;
60851;SDS011;48553;50.766;2.900;2023-10-09T02:01:35;12.38;;;6.13;;
60851;SDS011;48553;50.766;2.900;2023-10-09T02:04:40;12.40;;;6.50;;
60851;SDS011;48553;50.766;2.900;2023-10-09T02:07:41;12.43;;;6.22;;
60851;SDS011;48553;50.766;2.900;2023-10-09T02:10:44;13.20;;;6.50;;
60851;SDS011;48553;50.766;2.900;2023-10-09T02:13:48;10.60;;;6.20;;
60851;SDS011;48553;50.766;2.900;2023-10-09T02:16:53;14.00;;;6.82;;
60851;SDS011;48553;50.766;2.900;2023-10-09T02:20:02;15.38;;;6.72;;
60851;SDS011;48553;50.766;2.900;2023-10-09T02:23:16;10.38;;;6.10;;
60851;SDS011;48553;50.766;2.900;2023-10-09T02:26:17;14.05;;;6.75;;
60851;SDS011;48553;50.766;2.900;2023-10-09T02:29:25;12.98;;;7.00;;
60851;SDS011;48553;50.766;2.900;2023-10-09T02:32:26;11.55;;;6.57;;
60851;SDS011;48553;50.766;2.900;2023-10-09T02:35:28;10.07;;;5.78;;
60851;SDS011;48553;50.766;2.900;2023-10-09T02:38:30;12.20;;;6.70;;
60851;SDS011;48553;50.766;2.900;2023-10-09T02:41:34;10.63;;;6.43;;
60851;SDS011;48553;50.766;2.900;2023-10-09T02:44:34;12.48;;;6.50;;
60851;SDS011;48553;50.766;2.900;2023-10-09T02:47:40;15.60;;;6.88;;
60851;SDS011;48553;50.766;2.900;2023-10-09T02:50:40;12.95;;;6.70;;
60851;SDS011;48553;50.766;2.900;2023-10-09T02:53:44;12.95;;;6.80;;
60851;SDS011;48553;50.766;2.900;2023-10-09T02:56:50;12.23;;;6.72;;
60851;SDS011;48553;50.766;2.900;2023-10-09T03:00:05;13.20;;;6.93;;
60851;SDS011;48553;50.766;2.900;2023-10-09T03:03:09;13.45;;;7.20;;
60851;SDS011;48553;50.766;2.900;2023-10-09T03:06:09;13.07;;;6.95;;
60851;SDS011;48553;50.766;2.900;2023-10-09T03:09:12;14.60;;;7.50;;
60851;SDS011;48553;50.766;2.900;2023-10-09T03:12:26;13.52;;;7.22;;
60851;SDS011;48553;50.766;2.900;2023-10-09T03:15:28;13.80;;;7.43;;
60851;SDS011;48553;50.766;2.900;2023-10-09T03:18:35;12.82;;;7.10;;
60851;SDS011;48553;50.766;2.900;2023-10-09T03:21:37;12.77;;;7.50;;
60851;SDS011;48553;50.766;2.900;2023-10-09T03:24:38;18.38;;;7.95;;
60851;SDS011;48553;50.766;2.900;2023-10-09T03:27:41;12.52;;;6.93;;
60851;SDS011;48553;50.766;2.900;2023-10-09T03:30:45;15.18;;;7.45;;
60851;SDS011;48553;50.766;2.900;2023-10-09T03:33:47;13.95;;;7.72;;
60851;SDS011;48553;50.766;2.900;2023-10-09T03:36:47;15.57;;;7.93;;
60851;SDS011;48553;50.766;2.900;2023-10-09T03:39:48;15.95;;;8.43;;
60851;SDS011;48553;50.766;2.900;2023-10-09T03:42:51;15.27;;;8.23;;
60851;SDS011;48553;50.766;2.900;2023-10-09T03:45:52;15.07;;;8.30;;
60851;SDS011;48553;50.766;2.900;2023-10-09T03:48:53;17.17;;;8.30;;
60851;SDS011;48553;50.766;2.900;2023-10-09T03:51:57;14.32;;;7.95;;
60851;SDS011;48553;50.766;2.900;2023-10-09T03:54:59;14.07;;;8.20;;
60851;SDS011;48553;50.766;2.900;2023-10-09T03:58:01;14.02;;;7.97;;
60851;SDS011;48553;50.766;2.900;2023-10-09T04:01:06;16.52;;;8.35;;
60851;SDS011;48553;50.766;2.900;2023-10-09T04:04:07;17.65;;;8.48;;
60851;SDS011;48553;50.766;2.900;2023-10-09T04:07:10;14.82;;;8.23;;
60851;SDS011;48553;50.766;2.900;2023-10-09T04:10:11;16.55;;;8.68;;
60851;SDS011;48553;50.766;2.900;2023-10-09T04:13:33;17.48;;;8.90;;
60851;SDS011;48553;50.766;2.900;2023-10-09T04:16:33;16.35;;;8.88;;
60851;SDS011;48553;50.766;2.900;2023-10-09T04:19:34;14.13;;;8.02;;
60851;SDS011;48553;50.766;2.900;2023-10-09T04:22:54;16.15;;;8.80;;
60851;SDS011;48553;50.766;2.900;2023-10-09T04:26:05;15.90;;;8.55;;
60851;SDS011;48553;50.766;2.900;2023-10-09T04:29:14;16.33;;;8.65;;
60851;SDS011;48553;50.766;2.900;2023-10-09T04:32:23;17.13;;;8.63;;
60851;SDS011;48553;50.766;2.900;2023-10-09T04:35:29;14.90;;;8.07;;
60851;SDS011;48553;50.766;2.900;2023-10-09T04:38:30;18.83;;;8.60;;
60851;SDS011;48553;50.766;2.900;2023-10-09T04:41:34;17.33;;;8.60;;
60851;SDS011;48553;50.766;2.900;2023-10-09T04:44:55;16.35;;;8.35;;
60851;SDS011;48553;50.766;2.900;2023-10-09T04:48:04;16.90;;;8.75;;
60851;SDS011;48553;50.766;2.900;2023-10-09T04:51:06;16.10;;;8.68;;
60851;SDS011;48553;50.766;2.900;2023-10-09T04:54:34;17.35;;;8.73;;
60851;SDS011;48553;50.766;2.900;2023-10-09T04:58:00;15.35;;;8.52;;
60851;SDS011;48553;50.766;2.900;2023-10-09T05:01:01;16.02;;;8.90;;
60851;SDS011;48553;50.766;2.900;2023-10-09T05:04:02;20.02;;;9.32;;
60851;SDS011;48553;50.766;2.900;2023-10-09T05:07:04;18.17;;;9.48;;
60851;SDS011;48553;50.766;2.900;2023-10-09T05:10:23;15.80;;;8.60;;
60851;SDS011;48553;50.766;2.900;2023-10-09T05:13:32;15.38;;;8.38;;
60851;SDS011;48553;50.766;2.900;2023-10-09T05:16:39;15.50;;;9.02;;
60851;SDS011;48553;50.766;2.900;2023-10-09T05:19:55;15.35;;;8.80;;
60851;SDS011;48553;50.766;2.900;2023-10-09T05:23:15;16.25;;;8.75;;
60851;SDS011;48553;50.766;2.900;2023-10-09T05:26:26;17.27;;;9.13;;
60851;SDS011;48553;50.766;2.900;2023-10-09T05:29:37;16.05;;;8.77;;
60851;SDS011;48553;50.766;2.900;2023-10-09T05:32:57;16.05;;;9.05;;
60851;SDS011;48553;50.766;2.900;2023-10-09T05:35:58;17.17;;;10.00;;
60851;SDS011;48553;50.766;2.900;2023-10-09T05:39:26;17.73;;;10.00;;
60851;SDS011;48553;50.766;2.900;2023-10-09T05:42:41;19.23;;;9.90;;
60851;SDS011;48553;50.766;2.900;2023-10-09T05:45:41;17.77;;;9.98;;
60851;SDS011;48553;50.766;2.900;2023-10-09T05:48:42;20.77;;;10.38;;
60851;SDS011;48553;50.766;2.900;2023-10-09T05:51:43;18.27;;;10.52;;
60851;SDS011;48553;50.766;2.900;2023-10-09T05:54:44;17.92;;;10.23;;
60851;SDS011;48553;50.766;2.900;2023-10-09T05:58:03;18.13;;;10.45;;
60851;SDS011;48553;50.766;2.900;2023-10-09T06:01:09;21.45;;;10.52;;
60851;SDS011;48553;50.766;2.900;2023-10-09T06:04:28;22.70;;;11.25;;
60851;SDS011;48553;50.766;2.900;2023-10-09T06:07:54;18.92;;;10.55;;
60851;SDS011;48553;50.766;2.900;2023-10-09T06:11:20;17.83;;;10.25;;
60851;SDS011;48553;50.766;2.900;2023-10-09T06:14:33;19.80;;;11.23;;
60851;SDS011;48553;50.766;2.900;2023-10-09T06:17:36;18.02;;;10.57;;
60851;SDS011;48553;50.766;2.900;2023-10-09T06:20:44;23.20;;;11.50;;
60851;SDS011;48553;50.766;2.900;2023-10-09T06:24:03;23.08;;;12.07;;
60851;SDS011;48553;50.766;2.900;2023-10-09T06:27:14;23.70;;;12.60;;
60851;SDS011;48553;50.766;2.900;2023-10-09T06:30:35;24.75;;;13.40;;
60851;SDS011;48553;50.766;2.900;2023-10-09T06:33:44;24.08;;;13.00;;
60851;SDS011;48553;50.766;2.900;2023-10-09T06:40:15;26.98;;;14.40;;
60851;SDS011;48553;50.766;2.900;2023-10-09T06:43:34;25.75;;;14.60;;
60851;SDS011;48553;50.766;2.900;2023-10-09T06:49:46;29.77;;;15.18;;
60851;SDS011;48553;50.766;2.900;2023-10-09T06:59:31;29.90;;;16.65;;
60851;SDS011;48553;50.766;2.900;2023-10-09T07:12:22;30.02;;;17.90;;
60851;SDS011;48553;50.766;2.900;2023-10-09T07:15:27;32.58;;;17.77;;
60851;SDS011;48553;50.766;2.900;2023-10-09T07:18:47;30.63;;;17.42;;
60851;SDS011;48553;50.766;2.900;2023-10-09T07:25:05;36.97;;;18.58;;
60851;SDS011;48553;50.766;2.900;2023-10-09T07:34:41;32.75;;;18.17;;
60851;SDS011;48553;50.766;2.900;2023-10-09T07:37:53;36.03;;;19.67;;
60851;SDS011;48553;50.766;2.900;2023-10-09T07:40:55;37.55;;;19.23;;
60851;SDS011;48553;50.766;2.900;2023-10-09T07:44:16;35.15;;;19.38;;
60851;SDS011;48553;50.766;2.900;2023-10-09T07:47:19;34.15;;;18.38;;
60851;SDS011;48553;50.766;2.900;2023-10-09T07:50:36;39.25;;;19.40;;
60851;SDS011;48553;50.766;2.900;2023-10-09T07:53:40;32.30;;;18.48;;
60851;SDS011;48553;50.766;2.900;2023-10-09T07:56:44;37.30;;;19.05;;
60851;SDS011;48553;50.766;2.900;2023-10-09T07:59:53;36.78;;;19.75;;
60851;SDS011;48553;50.766;2.900;2023-10-09T08:03:11;35.20;;;19.08;;
60851;SDS011;48553;50.766;2.900;2023-10-09T08:06:24;37.53;;;20.27;;
60851;SDS011;48553;50.766;2.900;2023-10-09T08:09:45;36.90;;;20.17;;
60851;SDS011;48553;50.766;2.900;2023-10-09T08:13:06;37.60;;;20.58;;
60851;SDS011;48553;50.766;2.900;2023-10-09T08:16:26;35.90;;;19.60;;
60851;SDS011;48553;50.766;2.900;2023-10-09T08:19:36;34.15;;;19.02;;
60851;SDS011;48553;50.766;2.900;2023-10-09T08:22:56;36.03;;;18.77;;
60851;SDS011;48553;50.766;2.900;2023-10-09T08:26:02;39.92;;;20.38;;
60851;SDS011;48553;50.766;2.900;2023-10-09T08:29:13;32.70;;;18.45;;
60851;SDS011;48553;50.766;2.900;2023-10-09T08:32:17;34.63;;;19.67;;
60851;SDS011;48553;50.766;2.900;2023-10-09T08:35:18;36.05;;;20.02;;
60851;SDS011;48553;50.766;2.900;2023-10-09T08:38:33;39.03;;;21.17;;
60851;SDS011;48553;50.766;2.900;2023-10-09T08:41:34;34.75;;;19.50;;
60851;SDS011;48553;50.766;2.900;2023-10-09T08:44:34;37.53;;;18.65;;
60851;SDS011;48553;50.766;2.900;2023-10-09T08:47:37;35.22;;;18.25;;
60851;SDS011;48553;50.766;2.900;2023-10-09T08:50:38;31.00;;;17.15;;
60851;SDS011;48553;50.766;2.900;2023-10-09T08:53:39;36.95;;;18.60;;
60851;SDS011;48553;50.766;2.900;2023-10-09T08:56:43;32.97;;;17.98;;
60851;SDS011;48553;50.766;2.900;2023-10-09T08:59:52;32.00;;;16.23;;
60851;SDS011;48553;50.766;2.900;2023-10-09T09:02:52;32.28;;;17.02;;
60851;SDS011;48553;50.766;2.900;2023-10-09T09:05:59;31.30;;;17.55;;
60851;SDS011;48553;50.766;2.900;2023-10-09T09:09:09;34.72;;;17.55;;
60851;SDS011;48553;50.766;2.900;2023-10-09T09:12:13;28.40;;;16.58;;
60851;SDS011;48553;50.766;2.900;2023-10-09T09:15:16;35.38;;;17.55;;
60851;SDS011;48553;50.766;2.900;2023-10-09T09:18:20;33.60;;;17.15;;
60851;SDS011;48553;50.766;2.900;2023-10-09T09:21:21;31.52;;;16.15;;
60851;SDS011;48553;50.766;2.900;2023-10-09T09:24:22;27.65;;;15.52;;
60851;SDS011;48553;50.766;2.900;2023-10-09T09:27:22;28.92;;;15.80;;
60851;SDS011;48553;50.766;2.900;2023-10-09T09:30:31;30.58;;;15.77;;
60851;SDS011;48553;50.766;2.900;2023-10-09T09:33:33;28.67;;;15.52;;
60851;SDS011;48553;50.766;2.900;2023-10-09T09:37:04;27.60;;;14.40;;
60851;SDS011;48553;50.766;2.900;2023-10-09T09:40:05;27.42;;;14.02;;
60851;SDS011;48553;50.766;2.900;2023-10-09T09:43:15;28.88;;;14.35;;
60851;SDS011;48553;50.766;2.900;2023-10-09T09:46:22;25.60;;;13.88;;
60851;SDS011;48553;50.766;2.900;2023-10-09T09:49:43;23.98;;;13.80;;
60851;SDS011;48553;50.766;2.900;2023-10-09T09:52:44;26.55;;;13.70;;
60851;SDS011;48553;50.766;2.900;2023-10-09T09:55:54;25.02;;;13.13;;
60851;SDS011;48553;50.766;2.900;2023-10-09T09:58:58;27.25;;;12.50;;
60851;SDS011;48553;50.766;2.900;2023-10-09T10:02:10;24.98;;;12.82;;
60851;SDS011;48553;50.766;2.900;2023-10-09T10:05:20;22.77;;;12.27;;
60851;SDS011;48553;50.766;2.900;2023-10-09T10:08:21;22.02;;;12.20;;
60851;SDS011;48553;50.766;2.900;2023-10-09T10:11:46;23.98;;;11.90;;
60851;SDS011;48553;50.766;2.900;2023-10-09T10:14:55;19.80;;;10.63;;
60851;SDS011;48553;50.766;2.900;2023-10-09T10:21:09;19.73;;;10.80;;
60851;SDS011;48553;50.766;2.900;2023-10-09T10:28:11;19.33;;;9.35;;
60851;SDS011;48553;50.766;2.900;2023-10-09T10:34:56;15.77;;;8.85;;
60851;SDS011;48553;50.766;2.900;2023-10-09T10:37:56;16.25;;;8.35;;
60851;SDS011;48553;50.766;2.900;2023-10-09T10:41:11;16.27;;;7.72;;
60851;SDS011;48553;50.766;2.900;2023-10-09T10:47:41;14.00;;;7.38;;
60851;SDS011;48553;50.766;2.900;2023-10-09T10:50:42;16.48;;;7.53;;
60851;SDS011;48553;50.766;2.900;2023-10-09T10:53:51;14.77;;;7.03;;
60851;SDS011;48553;50.766;2.900;2023-10-09T10:56:57;15.38;;;6.30;;
60851;SDS011;48553;50.766;2.900;2023-10-09T10:59:58;13.85;;;6.10;;
60851;SDS011;48553;50.766;2.900;2023-10-09T11:03:20;14.20;;;5.72;;
60851;SDS011;48553;50.766;2.900;2023-10-09T11:06:29;11.77;;;5.65;;
60851;SDS011;48553;50.766;2.900;2023-10-09T11:13:05;9.93;;;5.43;;
60851;SDS011;48553;50.766;2.900;2023-10-09T11:16:08;10.32;;;5.18;;
60851;SDS011;48553;50.766;2.900;2023-10-09T11:19:19;8.88;;;4.85;;
60851;SDS011;48553;50.766;2.900;2023-10-09T11:22:26;10.70;;;5.20;;
60851;SDS011;48553;50.766;2.900;2023-10-09T11:25:28;10.95;;;4.68;;
60851;SDS011;48553;50.766;2.900;2023-10-09T11:28:30;11.52;;;5.57;;
60851;SDS011;48553;50.766;2.900;2023-10-09T11:31:57;10.55;;;4.95;;
60851;SDS011;48553;50.766;2.900;2023-10-09T11:35:13;9.82;;;4.40;;
60851;SDS011;48553;50.766;2.900;2023-10-09T11:38:34;11.57;;;4.90;;
60851;SDS011;48553;50.766;2.900;2023-10-09T11:41:39;9.77;;;4.55;;
60851;SDS011;48553;50.766;2.900;2023-10-09T11:44:41;12.25;;;4.90;;
60851;SDS011;48553;50.766;2.900;2023-10-09T11:47:46;8.63;;;4.65;;
60851;SDS011;48553;50.766;2.900;2023-10-09T11:50:59;11.83;;;5.30;;
60851;SDS011;48553;50.766;2.900;2023-10-09T11:54:00;11.05;;;5.03;;
60851;SDS011;48553;50.766;2.900;2023-10-09T11:57:00;10.48;;;4.53;;
60851;SDS011;48553;50.766;2.900;2023-10-09T12:00:02;12.27;;;5.00;;
60851;SDS011;48553;50.766;2.900;2023-10-09T12:03:09;12.07;;;5.20;;
60851;SDS011;48553;50.766;2.900;2023-10-09T12:06:09;10.30;;;4.60;;
60851;SDS011;48553;50.766;2.900;2023-10-09T12:09:14;11.45;;;5.03;;
60851;SDS011;48553;50.766;2.900;2023-10-09T12:12:24;11.07;;;4.97;;
60851;SDS011;48553;50.766;2.900;2023-10-09T12:15:26;14.27;;;5.50;;
60851;SDS011;48553;50.766;2.900;2023-10-09T12:18:37;11.23;;;5.10;;
60851;SDS011;48553;50.766;2.900;2023-10-09T12:21:40;11.43;;;4.80;;
60851;SDS011;48553;50.766;2.900;2023-10-09T12:24:43;11.35;;;4.80;;
60851;SDS011;48553;50.766;2.900;2023-10-09T12:27:43;11.65;;;4.57;;
60851;SDS011;48553;50.766;2.900;2023-10-09T12:30:44;10.52;;;5.15;;
60851;SDS011;48553;50.766;2.900;2023-10-09T12:34:02;11.27;;;4.90;;
60851;SDS011;48553;50.766;2.900;2023-10-09T12:37:03;11.13;;;4.78;;
60851;SDS011;48553;50.766;2.900;2023-10-09T12:40:06;11.07;;;4.90;;
60851;SDS011;48553;50.766;2.900;2023-10-09T12:46:13;13.25;;;5.15;;
60851;SDS011;48553;50.766;2.900;2023-10-09T12:49:16;11.50;;;4.97;;
60851;SDS011;48553;50.766;2.900;2023-10-09T12:52:16;9.40;;;4.60;;
60851;SDS011;48553;50.766;2.900;2023-10-09T12:58:36;11.00;;;5.13;;
60851;SDS011;48553;50.766;2.900;2023-10-09T13:01:38;10.38;;;5.15;;
60851;SDS011;48553;50.766;2.900;2023-10-09T13:04:44;9.55;;;4.30;;
60851;SDS011;48553;50.766;2.900;2023-10-09T13:07:44;8.70;;;4.47;;
60851;SDS011;48553;50.766;2.900;2023-10-09T13:10:45;9.95;;;4.80;;
60851;SDS011;48553;50.766;2.900;2023-10-09T13:13:45;10.38;;;4.25;;
60851;SDS011;48553;50.766;2.900;2023-10-09T13:16:52;8.55;;;4.60;;
60851;SDS011;48553;50.766;2.900;2023-10-09T13:19:53;7.97;;;4.43;;
60851;SDS011;48553;50.766;2.900;2023-10-09T13:22:54;10.52;;;4.32;;
60851;SDS011;48553;50.766;2.900;2023-10-09T13:25:57;9.57;;;4.82;;
60851;SDS011;48553;50.766;2.900;2023-10-09T13:28:58;8.73;;;4.70;;
60851;SDS011;48553;50.766;2.900;2023-10-09T13:31:59;8.68;;;4.72;;
60851;SDS011;48553;50.766;2.900;2023-10-09T13:35:02;10.95;;;4.72;;
60851;SDS011;48553;50.766;2.900;2023-10-09T13:41:14;9.32;;;3.88;;
60851;SDS011;48553;50.766;2.900;2023-10-09T13:44:17;9.25;;;4.07;;
60851;SDS011;48553;50.766;2.900;2023-10-09T13:47:18;9.98;;;4.15;;
60851;SDS011;48553;50.766;2.900;2023-10-09T13:50:24;8.77;;;4.38;;
60851;SDS011;48553;50.766;2.900;2023-10-09T13:53:29;9.35;;;3.80;;
60851;SDS011;48553;50.766;2.900;2023-10-09T13:56:29;8.77;;;3.80;;
60851;SDS011;48553;50.766;2.900;2023-10-09T13:59:30;9.07;;;4.13;;
60851;SDS011;48553;50.766;2.900;2023-10-09T14:02:31;8.43;;;4.00;;
60851;SDS011;48553;50.766;2.900;2023-10-09T14:05:32;7.97;;;4.00;;
60851;SDS011;48553;50.766;2.900;2023-10-09T14:08:33;7.68;;;3.72;;
60851;SDS011;48553;50.766;2.900;2023-10-09T14:11:34;9.70;;;4.18;;
60851;SDS011;48553;50.766;2.900;2023-10-09T14:14:39;10.73;;;4.15;;
60851;SDS011;48553;50.766;2.900;2023-10-09T14:17:47;9.95;;;4.40;;
60851;SDS011;48553;50.766;2.900;2023-10-09T14:20:47;9.70;;;4.47;;
60851;SDS011;48553;50.766;2.900;2023-10-09T14:23:50;9.43;;;4.80;;
60851;SDS011;48553;50.766;2.900;2023-10-09T14:26:50;8.43;;;4.43;;
60851;SDS011;48553;50.766;2.900;2023-10-09T14:39:19;7.88;;;3.63;;
60851;SDS011;48553;50.766;2.900;2023-10-09T14:42:26;8.27;;;3.95;;
60851;SDS011;48553;50.766;2.900;2023-10-09T14:45:27;10.82;;;4.15;;
60851;SDS011;48553;50.766;2.900;2023-10-09T14:48:28;10.45;;;4.28;;
60851;SDS011;48553;50.766;2.900;2023-10-09T14:51:28;8.38;;;3.88;;
60851;SDS011;48553;50.766;2.900;2023-10-09T14:54:29;10.38;;;4.57;;
60851;SDS011;48553;50.766;2.900;2023-10-09T14:57:30;9.95;;;4.13;;
60851;SDS011;48553;50.766;2.900;2023-10-09T15:00:33;10.90;;;4.57;;
60851;SDS011;48553;50.766;2.900;2023-10-09T15:03:34;9.57;;;4.07;;
60851;SDS011;48553;50.766;2.900;2023-10-09T15:06:37;7.78;;;3.80;;
60851;SDS011;48553;50.766;2.900;2023-10-09T15:09:38;9.60;;;4.25;;
60851;SDS011;48553;50.766;2.900;2023-10-09T15:12:41;8.65;;;3.65;;
60851;SDS011;48553;50.766;2.900;2023-10-09T15:15:43;9.15;;;3.80;;
60851;SDS011;48553;50.766;2.900;2023-10-09T15:18:44;8.23;;;3.63;;
60851;SDS011;48553;50.766;2.900;2023-10-09T15:21:45;8.63;;;3.80;;
60851;SDS011;48553;50.766;2.900;2023-10-09T15:24:45;8.63;;;3.83;;
60851;SDS011;48553;50.766;2.900;2023-10-09T15:27:46;8.70;;;3.70;;
60851;SDS011;48553;50.766;2.900;2023-10-09T15:30:47;8.43;;;3.58;;
60851;SDS011;48553;50.766;2.900;2023-10-09T15:33:49;6.82;;;3.55;;
60851;SDS011;48553;50.766;2.900;2023-10-09T15:36:51;8.63;;;3.65;;
60851;SDS011;48553;50.766;2.900;2023-10-09T15:39:53;6.47;;;3.60;;
60851;SDS011;48553;50.766;2.900;2023-10-09T15:42:54;6.78;;;3.47;;
60851;SDS011;48553;50.766;2.900;2023-10-09T15:45:56;11.10;;;3.78;;
60851;SDS011;48553;50.766;2.900;2023-10-09T15:48:58;8.25;;;3.25;;
60851;SDS011;48553;50.766;2.900;2023-10-09T15:52:00;8.98;;;3.80;;
60851;SDS011;48553;50.766;2.900;2023-10-09T15:55:04;6.30;;;2.90;;
60851;SDS011;48553;50.766;2.900;2023-10-09T15:58:13;8.38;;;3.47;;
60851;SDS011;48553;50.766;2.900;2023-10-09T16:01:16;9.63;;;3.53;;
60851;SDS011;48553;50.766;2.900;2023-10-09T16:07:33;8.30;;;3.67;;
60851;SDS011;48553;50.766;2.900;2023-10-09T16:10:34;9.65;;;3.58;;
60851;SDS011;48553;50.766;2.900;2023-10-09T16:13:37;6.72;;;3.38;;
60851;SDS011;48553;50.766;2.900;2023-10-09T16:16:38;7.72;;;3.08;;
60851;SDS011;48553;50.766;2.900;2023-10-09T16:19:41;8.20;;;3.45;;
60851;SDS011;48553;50.766;2.900;2023-10-09T16:22:42;7.63;;;3.40;;
60851;SDS011;48553;50.766;2.900;2023-10-09T16:25:45;8.00;;;3.08;;
60851;SDS011;48553;50.766;2.900;2023-10-09T16:28:46;7.25;;;3.00;;
60851;SDS011;48553;50.766;2.900;2023-10-09T16:34:51;7.13;;;3.17;;
60851;SDS011;48553;50.766;2.900;2023-10-09T16:41:03;8.73;;;3.20;;
60851;SDS011;48553;50.766;2.900;2023-10-09T16:44:07;10.30;;;3.30;;
60851;SDS011;48553;50.766;2.900;2023-10-09T16:47:10;8.85;;;3.00;;
60851;SDS011;48553;50.766;2.900;2023-10-09T16:50:13;6.20;;;2.80;;
60851;SDS011;48553;50.766;2.900;2023-10-09T16:53:18;8.93;;;3.30;;
60851;SDS011;48553;50.766;2.900;2023-10-09T16:56:19;8.07;;;3.30;;
60851;SDS011;48553;50.766;2.900;2023-10-09T17:02:28;7.28;;;3.20;;
60851;SDS011;48553;50.766;2.900;2023-10-09T17:05:30;8.15;;;3.10;;
60851;SDS011;48553;50.766;2.900;2023-10-09T17:08:33;7.15;;;3.17;;
60851;SDS011;48553;50.766;2.900;2023-10-09T17:11:39;5.85;;;2.85;;
60851;SDS011;48553;50.766;2.900;2023-10-09T17:14:41;9.10;;;2.97;;
60851;SDS011;48553;50.766;2.900;2023-10-09T17:17:42;6.03;;;2.92;;
60851;SDS011;48553;50.766;2.900;2023-10-09T17:20:45;7.22;;;3.05;;
60851;SDS011;48553;50.766;2.900;2023-10-09T17:23:49;7.97;;;3.05;;
60851;SDS011;48553;50.766;2.900;2023-10-09T17:26:50;8.68;;;3.65;;
60851;SDS011;48553;50.766;2.900;2023-10-09T17:29:51;10.30;;;3.40;;
60851;SDS011;48553;50.766;2.900;2023-10-09T17:32:51;7.10;;;3.22;;
60851;SDS011;48553;50.766;2.900;2023-10-09T17:35:51;6.55;;;3.55;;
60851;SDS011;48553;50.766;2.900;2023-10-09T17:38:53;10.07;;;3.53;;
60851;SDS011;48553;50.766;2.900;2023-10-09T17:41:54;7.72;;;3.60;;
60851;SDS011;48553;50.766;2.900;2023-10-09T17:44:55;6.40;;;3.15;;
60851;SDS011;48553;50.766;2.900;2023-10-09T17:47:56;11.40;;;3.53;;
60851;SDS011;48553;50.766;2.900;2023-10-09T17:50:59;8.88;;;3.75;;
60851;SDS011;48553;50.766;2.900;2023-10-09T17:54:00;8.32;;;3.58;;
60851;SDS011;48553;50.766;2.900;2023-10-09T17:57:00;8.48;;;3.70;;
60851;SDS011;48553;50.766;2.900;2023-10-09T18:00:01;7.10;;;3.33;;
60851;SDS011;48553;50.766;2.900;2023-10-09T18:03:03;8.93;;;3.58;;
60851;SDS011;48553;50.766;2.900;2023-10-09T18:06:05;7.35;;;3.67;;
60851;SDS011;48553;50.766;2.900;2023-10-09T18:09:06;8.75;;;3.65;;
60851;SDS011;48553;50.766;2.900;2023-10-09T18:12:15;13.00;;;3.72;;
60851;SDS011;48553;50.766;2.900;2023-10-09T18:15:18;8.73;;;3.67;;
60851;SDS011;48553;50.766;2.900;2023-10-09T18:18:20;7.72;;;3.70;;
60851;SDS011;48553;50.766;2.900;2023-10-09T18:21:22;8.18;;;3.70;;
60851;SDS011;48553;50.766;2.900;2023-10-09T18:24:24;8.80;;;3.70;;
60851;SDS011;48553;50.766;2.900;2023-10-09T18:27:24;8.68;;;3.80;;
60851;SDS011;48553;50.766;2.900;2023-10-09T18:30:25;11.27;;;4.10;;
60851;SDS011;48553;50.766;2.900;2023-10-09T18:33:27;9.77;;;4.10;;
60851;SDS011;48553;50.766;2.900;2023-10-09T18:36:28;9.20;;;4.20;;
60851;SDS011;48553;50.766;2.900;2023-10-09T18:42:40;9.45;;;4.13;;
60851;SDS011;48553;50.766;2.900;2023-10-09T18:45:41;8.70;;;4.20;;
60851;SDS011;48553;50.766;2.900;2023-10-09T18:48:42;9.65;;;4.07;;
60851;SDS011;48553;50.766;2.900;2023-10-09T18:51:45;9.82;;;4.30;;
60851;SDS011;48553;50.766;2.900;2023-10-09T18:54:46;11.15;;;4.57;;
60851;SDS011;48553;50.766;2.900;2023-10-09T18:57:47;8.85;;;4.28;;
60851;SDS011;48553;50.766;2.900;2023-10-09T19:00:50;11.70;;;4.35;;
60851;SDS011;48553;50.766;2.900;2023-10-09T19:03:51;9.10;;;4.20;;
60851;SDS011;48553;50.766;2.900;2023-10-09T19:06:52;9.38;;;3.85;;
60851;SDS011;48553;50.766;2.900;2023-10-09T19:09:55;8.98;;;4.07;;
60851;SDS011;48553;50.766;2.900;2023-10-09T19:12:56;10.15;;;4.35;;
60851;SDS011;48553;50.766;2.900;2023-10-09T19:15:57;11.63;;;4.20;;
60851;SDS011;48553;50.766;2.900;2023-10-09T19:18:57;9.32;;;4.43;;
60851;SDS011;48553;50.766;2.900;2023-10-09T19:22:04;7.45;;;3.83;;
60851;SDS011;48553;50.766;2.900;2023-10-09T19:25:05;9.82;;;4.43;;
60851;SDS011;48553;50.766;2.900;2023-10-09T19:28:16;8.52;;;4.22;;
60851;SDS011;48553;50.766;2.900;2023-10-09T19:31:16;9.00;;;4.60;;
60851;SDS011;48553;50.766;2.900;2023-10-09T19:34:20;9.55;;;4.18;;
60851;SDS011;48553;50.766;2.900;2023-10-09T19:37:20;9.48;;;4.82;;
60851;SDS011;48553;50.766;2.900;2023-10-09T19:40:21;10.60;;;4.93;;
60851;SDS011;48553;50.766;2.900;2023-10-09T19:43:24;10.75;;;4.55;;
60851;SDS011;48553;50.766;2.900;2023-10-09T19:46:25;8.82;;;4.53;;